Time;durP1;ratioP1;P1;durP2;ratioP2;P2;SDS_P1;SDS_P2;PMS_P1;PMS_P2;Temp;Humidity;BMP_temperature;BMP_pressure;BME280_temperature;BME280_humidity;BME280_pressure;Samples;Min_cycle;Max_cycle;Signal;HPM_P1;HPM_P2
2023/07/08 00:00:42;;;;;;;7.00;4.30;;;26.10;71.20;;;;;;5032818;28;20389;-84
2023/07/08 00:03:08;;;;;;;6.68;4.20;;;26.00;70.90;;;;;;5066304;28;20044;-84
2023/07/08 00:05:34;;;;;;;7.95;4.35;;;26.00;71.00;;;;;;5051827;28;20108;-84
2023/07/08 00:08:00;;;;;;;7.70;4.50;;;26.00;71.20;;;;;;5044576;28;20047;-83
2023/07/08 00:10:27;;;;;;;6.30;4.40;;;26.00;71.50;;;;;;5037754;28;20497;-83
2023/07/08 00:12:56;;;;;;;7.75;4.22;;;26.00;71.50;;;;;;5058134;28;20041;-83
2023/07/08 00:15:27;;;;;;;6.93;4.00;;;26.00;71.80;;;;;;5054353;28;20036;-83
2023/07/08 00:17:53;;;;;;;5.03;3.78;;;26.00;72.00;;;;;;5044915;28;20029;-83
2023/07/08 00:20:39;;;;;;;5.55;4.10;;;26.00;72.10;;;;;;5039565;28;20288;-82
2023/07/08 00:23:05;;;;;;;7.75;4.35;;;26.00;71.90;;;;;;5038496;28;20029;-84
2023/07/08 00:25:32;;;;;;;6.65;3.83;;;26.00;72.00;;;;;;5050881;28;20084;-83
2023/07/08 00:27:58;;;;;;;6.03;4.25;;;26.00;72.20;;;;;;5058292;28;20025;-84
2023/07/08 00:30:31;;;;;;;5.30;3.92;;;26.00;72.30;;;;;;5065502;28;20082;-84
2023/07/08 00:32:58;;;;;;;5.35;3.90;;;26.00;72.30;;;;;;5056432;28;20117;-83
2023/07/08 00:35:34;;;;;;;6.97;3.70;;;26.00;72.60;;;;;;5052118;28;20092;-83
2023/07/08 00:38:12;;;;;;;6.25;4.15;;;26.00;72.40;;;;;;5059464;28;20024;-83
2023/07/08 00:40:48;;;;;;;6.20;4.57;;;26.00;72.50;;;;;;5060756;28;20036;-83
2023/07/08 00:43:14;;;;;;;5.28;3.88;;;26.00;72.70;;;;;;5063913;28;20032;-84
2023/07/08 00:45:53;;;;;;;6.38;4.30;;;26.00;72.90;;;;;;5075662;28;20093;-84
2023/07/08 00:48:44;;;;;;;5.65;4.18;;;26.00;73.10;;;;;;5064711;28;20384;-84
2023/07/08 00:51:12;;;;;;;6.03;4.05;;;25.90;73.00;;;;;;5053797;28;20524;-84
2023/07/08 00:53:38;;;;;;;4.88;3.90;;;25.90;73.00;;;;;;5068373;28;20487;-84
2023/07/08 00:56:14;;;;;;;5.57;3.85;;;25.90;73.10;;;;;;5052753;28;20057;-84
2023/07/08 00:58:45;;;;;;;8.00;4.00;;;25.90;73.20;;;;;;5039349;28;20107;-84
2023/07/08 01:01:11;;;;;;;5.07;3.83;;;25.90;73.30;;;;;;5035220;28;20044;-84
2023/07/08 01:03:49;;;;;;;6.97;4.35;;;25.90;73.60;;;;;;5061794;28;20029;-84
2023/07/08 01:06:15;;;;;;;4.65;3.78;;;25.90;73.70;;;;;;5054780;28;20040;-84
2023/07/08 01:08:41;;;;;;;6.35;4.03;;;25.80;73.40;;;;;;5054531;28;20083;-83
2023/07/08 01:11:07;;;;;;;6.63;4.28;;;25.80;73.70;;;;;;5053999;28;20049;-80
2023/07/08 01:13:41;;;;;;;5.57;3.97;;;25.80;74.00;;;;;;5050148;28;20028;-80
2023/07/08 01:16:08;;;;;;;6.88;4.53;;;25.80;73.90;;;;;;5051181;28;20036;-80
2023/07/08 01:18:35;;;;;;;8.52;4.18;;;25.80;74.00;;;;;;5050239;28;20056;-81
2023/07/08 01:21:26;;;;;;;4.97;3.92;;;25.80;74.10;;;;;;5042000;28;20053;-81
2023/07/08 01:23:51;;;;;;;6.53;4.22;;;25.80;74.30;;;;;;5053445;28;20028;-81
2023/07/08 01:26:17;;;;;;;6.63;4.22;;;25.70;74.30;;;;;;5050993;28;20021;-81
2023/07/08 01:28:43;;;;;;;7.32;4.82;;;25.70;74.50;;;;;;5040782;28;20151;-81
2023/07/08 01:31:09;;;;;;;4.40;3.35;;;25.70;74.70;;;;;;5053745;28;20033;-80
2023/07/08 01:33:35;;;;;;;5.45;4.00;;;25.70;74.70;;;;;;5054358;28;20100;-80
2023/07/08 01:36:00;;;;;;;6.13;4.30;;;25.70;74.70;;;;;;5044426;28;20025;-80
2023/07/08 01:38:27;;;;;;;6.28;3.83;;;25.70;74.70;;;;;;5038315;28;20405;-80
2023/07/08 01:40:57;;;;;;;6.88;4.30;;;25.70;74.90;;;;;;5053481;28;20103;-80
2023/07/08 01:43:23;;;;;;;7.50;4.22;;;25.70;74.90;;;;;;5051286;28;20505;-80
2023/07/08 01:45:51;;;;;;;6.85;4.70;;;25.60;75.30;;;;;;5054501;28;20033;-80
2023/07/08 01:48:21;;;;;;;6.43;4.50;;;25.60;75.40;;;;;;5052705;28;20473;-80
2023/07/08 01:51:03;;;;;;;6.90;4.45;;;25.60;75.50;;;;;;5052661;28;20056;-80
2023/07/08 01:53:32;;;;;;;5.15;3.90;;;25.60;75.40;;;;;;5053545;28;20029;-80
2023/07/08 01:55:58;;;;;;;6.68;4.57;;;25.60;75.60;;;;;;5068483;28;20112;-81
2023/07/08 01:58:24;;;;;;;6.45;4.78;;;25.60;75.60;;;;;;5062459;28;20103;-81
2023/07/08 02:00:51;;;;;;;6.18;4.25;;;25.60;75.70;;;;;;5055612;28;20033;-81
2023/07/08 02:03:16;;;;;;;5.75;4.20;;;25.50;75.60;;;;;;5071955;28;20077;-81
2023/07/08 02:05:42;;;;;;;6.25;4.15;;;25.50;75.90;;;;;;5061019;28;20044;-81
2023/07/08 02:08:08;;;;;;;7.85;4.68;;;25.50;76.10;;;;;;5054522;28;20096;-81
2023/07/08 02:10:34;;;;;;;4.82;3.92;;;25.50;76.20;;;;;;5059868;28;20422;-81
2023/07/08 02:12:59;;;;;;;5.72;4.18;;;25.40;76.50;;;;;;5051804;28;20762;-81
2023/07/08 02:15:26;;;;;;;8.65;4.55;;;25.40;76.60;;;;;;5050350;28;20379;-81
2023/07/08 02:17:52;;;;;;;6.65;4.20;;;25.40;76.40;;;;;;5048363;28;20365;-81
2023/07/08 02:20:18;;;;;;;6.70;4.10;;;25.40;76.50;;;;;;5052250;28;20047;-81
2023/07/08 02:22:44;;;;;;;7.50;4.38;;;25.40;76.80;;;;;;5052506;28;20028;-81
2023/07/08 02:25:09;;;;;;;7.10;4.40;;;25.30;76.70;;;;;;5054884;28;20688;-80
2023/07/08 02:27:37;;;;;;;6.53;4.68;;;25.30;76.70;;;;;;5046000;28;20048;-80
2023/07/08 02:30:04;;;;;;;5.53;4.30;;;25.30;76.70;;;;;;5052639;28;20087;-80
2023/07/08 02:32:29;;;;;;;6.40;4.45;;;25.30;76.70;;;;;;5052124;28;20082;-81
2023/07/08 02:34:55;;;;;;;6.65;4.22;;;25.20;76.80;;;;;;5050202;28;20025;-81
2023/07/08 02:37:21;;;;;;;5.78;4.50;;;25.20;76.80;;;;;;5045266;28;20100;-80
2023/07/08 02:39:46;;;;;;;7.22;4.70;;;25.20;76.60;;;;;;5051694;28;20393;-79
2023/07/08 02:42:12;;;;;;;7.60;4.45;;;25.20;76.90;;;;;;5051076;28;20059;-79
2023/07/08 02:44:38;;;;;;;7.90;4.93;;;25.30;77.10;;;;;;5053523;28;20029;-79
2023/07/08 02:47:04;;;;;;;6.28;4.68;;;25.20;76.30;;;;;;5044701;28;20075;-79
2023/07/08 02:49:30;;;;;;;6.80;4.50;;;25.20;75.90;;;;;;5051075;28;20085;-79
2023/07/08 02:51:56;;;;;;;7.60;4.57;;;25.20;76.40;;;;;;5051721;28;20029;-79
2023/07/08 02:54:21;;;;;;;7.05;4.07;;;25.20;76.40;;;;;;5050764;28;20104;-79
2023/07/08 02:56:47;;;;;;;6.53;3.65;;;25.20;76.40;;;;;;5038566;28;20024;-80
2023/07/08 02:59:13;;;;;;;5.57;4.43;;;25.20;76.40;;;;;;5049355;28;20037;-80
2023/07/08 03:01:41;;;;;;;6.68;4.18;;;25.20;76.50;;;;;;5043692;28;20040;-79
2023/07/08 03:04:13;;;;;;;6.40;4.15;;;25.10;76.60;;;;;;5036167;28;20465;-79
2023/07/08 03:06:43;;;;;;;6.22;4.65;;;25.20;76.90;;;;;;5044326;28;20151;-79
2023/07/08 03:09:11;;;;;;;6.00;4.55;;;25.10;76.90;;;;;;5047712;28;20082;-79
2023/07/08 03:11:38;;;;;;;5.53;4.05;;;25.10;77.10;;;;;;5046378;28;20056;-80
2023/07/08 03:14:05;;;;;;;6.05;4.55;;;25.10;77.10;;;;;;5053162;28;20090;-79
2023/07/08 03:16:31;;;;;;;6.07;4.38;;;25.10;77.10;;;;;;5015690;28;20037;-79
2023/07/08 03:18:57;;;;;;;7.68;4.55;;;25.10;77.30;;;;;;5049037;28;20021;-79
2023/07/08 03:21:22;;;;;;;8.55;4.38;;;25.10;77.40;;;;;;5043730;28;20040;-79
2023/07/08 03:23:49;;;;;;;7.15;4.32;;;25.00;77.50;;;;;;5043880;28;20037;-79
2023/07/08 03:26:18;;;;;;;6.28;4.32;;;25.00;77.50;;;;;;5049229;28;20476;-79
2023/07/08 03:28:45;;;;;;;6.10;4.15;;;25.00;77.50;;;;;;5051043;28;20545;-79
2023/07/08 03:31:11;;;;;;;6.68;4.20;;;25.00;77.80;;;;;;5028998;28;20124;-80
2023/07/08 03:33:37;;;;;;;5.68;4.10;;;25.00;77.70;;;;;;5051574;28;20053;-79
2023/07/08 03:36:22;;;;;;;6.05;4.63;;;24.90;77.90;;;;;;5052272;28;20536;-79
2023/07/08 03:38:52;;;;;;;6.85;5.00;;;24.90;77.60;;;;;;5038434;28;20053;-80
2023/07/08 03:41:18;;;;;;;;;;;24.90;77.70;;;;;;5051048;28;20083;-79
2023/07/08 03:43:44;;;;;;;7.53;5.03;;;24.80;78.40;;;;;;5036986;28;20350;-79
2023/07/08 03:46:14;;;;;;;6.38;4.40;;;24.80;77.90;;;;;;5053707;28;20064;-80
2023/07/08 03:48:39;;;;;;;8.55;4.80;;;24.80;77.90;;;;;;5051255;28;20032;-79
2023/07/08 03:51:19;;;;;;;6.28;4.18;;;24.80;78.00;;;;;;5060546;28;20104;-79
2023/07/08 03:53:45;;;;;;;9.20;4.85;;;24.80;78.20;;;;;;5065261;28;20074;-79
2023/07/08 03:56:13;;;;;;;7.50;4.65;;;24.80;78.00;;;;;;5071615;28;20025;-79
2023/07/08 03:58:38;;;;;;;7.32;4.75;;;24.80;77.90;;;;;;5036534;28;20029;-79
2023/07/08 04:01:04;;;;;;;8.15;5.07;;;24.80;77.80;;;;;;5058518;28;20561;-79
2023/07/08 04:03:30;;;;;;;7.30;4.97;;;24.80;77.80;;;;;;5060255;28;20040;-79
2023/07/08 04:05:56;;;;;;;8.57;4.85;;;24.80;77.90;;;;;;5042198;28;20104;-80
2023/07/08 04:08:21;;;;;;;5.68;4.28;;;24.70;77.80;;;;;;5051943;28;20111;-80
2023/07/08 04:10:47;;;;;;;6.10;4.55;;;24.70;78.10;;;;;;5051371;28;20036;-80
2023/07/08 04:13:13;;;;;;;8.38;4.72;;;24.70;78.20;;;;;;5058019;28;20533;-79
2023/07/08 04:15:38;;;;;;;6.53;4.95;;;24.70;78.30;;;;;;5051281;28;20025;-80
2023/07/08 04:18:04;;;;;;;7.80;5.05;;;24.80;78.50;;;;;;5055494;28;20039;-80
2023/07/08 04:20:30;;;;;;;9.70;4.82;;;24.70;78.60;;;;;;5054369;28;20393;-80
2023/07/08 04:22:55;;;;;;;7.50;4.88;;;24.70;78.60;;;;;;5051141;28;20029;-80
2023/07/08 04:25:21;;;;;;;6.40;4.65;;;24.60;78.80;;;;;;5054246;28;20033;-79
2023/07/08 04:27:47;;;;;;;9.30;5.15;;;24.70;79.00;;;;;;5047215;28;20036;-79
2023/07/08 04:30:25;;;;;;;6.55;4.50;;;24.70;79.10;;;;;;5046583;28;20033;-79
2023/07/08 04:32:51;;;;;;;6.68;5.05;;;24.70;79.20;;;;;;5048448;28;20532;-79
2023/07/08 04:35:17;;;;;;;7.85;4.85;;;24.70;79.10;;;;;;5046775;28;20029;-80
2023/07/08 04:37:43;;;;;;;7.38;5.07;;;24.70;79.20;;;;;;5048369;28;20033;-80
2023/07/08 04:40:20;;;;;;;6.75;4.85;;;24.70;79.00;;;;;;5054920;28;20037;-80
2023/07/08 04:42:47;;;;;;;7.47;5.20;;;24.70;79.10;;;;;;5044524;28;20026;-79
2023/07/08 04:45:14;;;;;;;7.45;4.70;;;24.70;79.10;;;;;;5043502;28;20056;-79
2023/07/08 04:47:40;;;;;;;7.75;4.47;;;24.60;79.10;;;;;;5055777;28;20032;-79
2023/07/08 04:50:06;;;;;;;7.45;5.07;;;24.60;79.80;;;;;;5062249;28;20444;-80
2023/07/08 04:52:31;;;;;;;7.40;4.85;;;24.60;79.30;;;;;;5050928;28;20933;-79
2023/07/08 04:54:57;;;;;;;6.60;4.88;;;24.60;79.30;;;;;;5055074;28;20404;-79
2023/07/08 04:57:23;;;;;;;10.55;5.15;;;24.50;79.30;;;;;;5054890;28;20472;-79
2023/07/08 04:59:48;;;;;;;9.52;5.43;;;24.50;79.30;;;;;;5045590;28;20025;-79
2023/07/08 05:02:14;;;;;;;6.60;5.05;;;24.50;79.70;;;;;;5052208;28;21058;-79
2023/07/08 05:04:40;;;;;;;7.22;5.07;;;24.50;79.70;;;;;;5049709;28;20033;-80
2023/07/08 05:07:05;;;;;;;7.95;5.70;;;24.50;79.70;;;;;;5054876;28;20029;-80
2023/07/08 05:09:31;;;;;;;9.55;4.90;;;24.50;80.00;;;;;;5054594;28;20037;-80
2023/07/08 05:11:57;;;;;;;6.15;4.53;;;24.50;79.90;;;;;;5051386;28;20060;-80
2023/07/08 05:14:23;;;;;;;6.20;4.85;;;24.50;80.10;;;;;;5047076;28;20067;-80
2023/07/08 05:16:49;;;;;;;7.65;4.93;;;24.50;80.10;;;;;;5050282;28;20021;-80
2023/07/08 05:19:14;;;;;;;4.75;4.05;;;24.50;80.10;;;;;;5043041;28;20039;-78
2023/07/08 05:21:40;;;;;;;8.65;5.15;;;24.50;80.20;;;;;;5044394;28;20036;-79
2023/07/08 05:24:06;;;;;;;6.30;4.60;;;24.50;80.40;;;;;;5038923;28;20371;-79
2023/07/08 05:26:33;;;;;;;10.55;5.60;;;24.50;80.30;;;;;;5055842;28;20116;-79
2023/07/08 05:28:59;;;;;;;6.30;4.63;;;24.50;80.40;;;;;;5050432;28;20022;-79
2023/07/08 05:31:24;;;;;;;7.63;4.82;;;24.50;80.30;;;;;;5025102;28;20079;-79
2023/07/08 05:33:51;;;;;;;12.75;5.20;;;24.50;80.50;;;;;;5051625;28;20196;-78
2023/07/08 05:36:16;;;;;;;8.63;4.90;;;24.60;80.40;;;;;;5051943;28;20064;-77
2023/07/08 05:38:42;;;;;;;6.35;4.63;;;24.60;80.50;;;;;;5045642;28;20441;-81
2023/07/08 05:41:08;;;;;;;9.20;4.82;;;24.70;80.40;;;;;;5052652;28;20029;-76
2023/07/08 05:43:34;;;;;;;8.23;4.80;;;24.70;80.20;;;;;;5054037;28;20115;-76
2023/07/08 05:46:01;;;;;;;6.78;4.20;;;24.80;80.30;;;;;;5043421;28;20034;-91
2023/07/08 05:48:27;;;;;;;6.90;4.18;;;24.80;80.20;;;;;;5054491;28;20054;-86
2023/07/08 05:50:54;;;;;;;9.95;4.60;;;24.80;80.10;;;;;;5055817;28;20150;-93
2023/07/08 05:53:20;;;;;;;8.48;4.90;;;24.80;80.00;;;;;;5049133;28;20025;-93
2023/07/08 05:55:48;;;;;;;7.07;4.43;;;24.90;79.90;;;;;;5052145;28;20028;-92
2023/07/08 05:58:15;;;;;;;6.95;4.95;;;24.90;80.40;;;;;;5055301;28;20033;-92
2023/07/08 06:00:42;;;;;;;6.75;4.50;;;25.00;80.00;;;;;;5047491;28;20497;-93
2023/07/08 06:03:08;;;;;;;8.32;5.00;;;25.00;80.00;;;;;;5055430;28;20734;-95
2023/07/08 06:05:34;;;;;;;5.55;4.43;;;25.00;80.10;;;;;;5053902;28;20092;-93
2023/07/08 06:08:00;;;;;;;7.50;5.00;;;25.10;79.70;;;;;;5041145;28;20128;-94
2023/07/08 06:10:25;;;;;;;6.75;4.95;;;25.10;79.80;;;;;;5050580;28;20017;-77
2023/07/08 06:12:51;;;;;;;9.23;4.80;;;25.20;79.50;;;;;;5052934;28;20049;-77
2023/07/08 06:15:17;;;;;;;6.80;4.50;;;25.20;79.30;;;;;;5054001;28;20081;-78
2023/07/08 06:17:43;;;;;;;8.48;4.82;;;25.20;79.20;;;;;;5034251;28;20029;-78
2023/07/08 06:20:08;;;;;;;7.18;4.60;;;25.20;79.20;;;;;;5054092;28;20021;-78
2023/07/08 06:22:34;;;;;;;6.78;4.70;;;25.30;79.30;;;;;;5035523;28;20056;-79
2023/07/08 06:25:00;;;;;;;5.55;4.25;;;25.30;79.40;;;;;;5054023;28;20033;-79
2023/07/08 06:27:25;;;;;;;6.78;4.72;;;25.40;79.50;;;;;;5053231;28;20033;-79
2023/07/08 06:29:53;;;;;;;6.65;4.57;;;25.40;79.00;;;;;;5051971;28;20025;-79
2023/07/08 06:32:18;;;;;;;5.45;4.28;;;25.40;78.80;;;;;;5051453;28;20431;-79
2023/07/08 06:34:44;;;;;;;6.18;4.75;;;25.40;79.00;;;;;;5053744;28;20028;-79
2023/07/08 06:37:10;;;;;;;5.93;4.20;;;25.50;79.20;;;;;;5025181;28;20048;-79
2023/07/08 06:39:35;;;;;;;6.50;3.95;;;25.60;78.60;;;;;;5043929;28;20040;-79
2023/07/08 06:42:01;;;;;;;6.57;4.47;;;25.60;78.60;;;;;;5052610;28;20119;-79
2023/07/08 06:44:27;;;;;;;5.25;4.00;;;25.70;78.50;;;;;;5053350;28;20481;-79
2023/07/08 06:46:52;;;;;;;7.68;4.10;;;25.70;78.30;;;;;;5053829;28;20037;-79
2023/07/08 06:49:18;;;;;;;6.60;3.88;;;25.80;78.30;;;;;;5053841;28;20032;-80
2023/07/08 06:51:45;;;;;;;6.43;4.20;;;25.80;78.30;;;;;;5053660;28;20354;-79
2023/07/08 06:54:11;;;;;;;5.30;3.70;;;25.90;78.10;;;;;;5052916;28;20453;-81
2023/07/08 06:56:41;;;;;;;6.78;4.18;;;25.90;77.90;;;;;;5053897;28;20029;-81
2023/07/08 06:59:10;;;;;;;6.95;4.00;;;25.90;77.60;;;;;;5052691;28;20483;-80
2023/07/08 07:01:36;;;;;;;6.80;4.47;;;26.00;77.70;;;;;;5052036;28;20044;-81
2023/07/08 07:04:03;;;;;;;6.10;4.75;;;26.00;77.60;;;;;;5061944;28;20021;-81
2023/07/08 07:06:29;;;;;;;5.88;4.20;;;26.00;77.40;;;;;;5053061;28;20156;-81
2023/07/08 07:08:55;;;;;;;6.43;4.10;;;26.10;77.60;;;;;;5053751;28;20029;-81
2023/07/08 07:11:20;;;;;;;6.60;4.13;;;26.20;77.60;;;;;;5052677;28;20043;-81
2023/07/08 07:13:47;;;;;;;5.20;3.97;;;26.20;77.60;;;;;;5054091;28;20327;-80
2023/07/08 07:16:13;;;;;;;7.45;4.25;;;26.30;77.80;;;;;;5067258;28;20033;-80
2023/07/08 07:18:38;;;;;;;7.18;4.75;;;26.30;77.80;;;;;;5052515;28;20052;-83
2023/07/08 07:21:04;;;;;;;5.82;4.25;;;26.40;77.60;;;;;;5052669;28;20448;-82
2023/07/08 07:23:30;;;;;;;6.45;4.10;;;26.50;77.10;;;;;;5052681;28;20385;-82
2023/07/08 07:25:57;;;;;;;4.90;3.78;;;26.50;76.90;;;;;;5072465;28;20525;-80
2023/07/08 07:28:23;;;;;;;4.93;3.70;;;26.60;76.90;;;;;;5072867;28;20036;-81
2023/07/08 07:30:57;;;;;;;7.38;4.43;;;26.60;76.70;;;;;;5062946;28;20032;-80
2023/07/08 07:33:23;;;;;;;4.15;3.47;;;26.70;76.70;;;;;;5047756;28;20036;-83
2023/07/08 07:35:49;;;;;;;6.25;4.28;;;26.70;76.40;;;;;;5050190;28;20410;-82
2023/07/08 07:38:16;;;;;;;4.95;3.40;;;26.80;76.80;;;;;;5050777;28;20055;-82
2023/07/08 07:40:42;;;;;;;7.40;4.20;;;26.90;77.00;;;;;;5051873;28;20085;-83
2023/07/08 07:43:08;;;;;;;4.75;3.85;;;26.90;77.10;;;;;;5032433;28;20049;-82
2023/07/08 07:45:34;;;;;;;8.73;4.28;;;27.00;77.00;;;;;;5058647;28;20036;-82
2023/07/08 07:48:00;;;;;;;6.40;4.50;;;27.10;77.20;;;;;;5044593;28;20037;-83
2023/07/08 07:50:25;;;;;;;5.45;4.18;;;27.10;77.00;;;;;;5049450;28;20492;-83
2023/07/08 07:52:51;;;;;;;5.60;4.47;;;27.10;76.60;;;;;;5046833;28;20029;-82
2023/07/08 07:55:18;;;;;;;5.32;4.32;;;27.20;76.60;;;;;;5056338;28;20028;-82
2023/07/08 07:57:45;;;;;;;7.72;4.35;;;27.20;76.30;;;;;;5058881;28;20025;-83
2023/07/08 08:00:11;;;;;;;5.65;3.92;;;27.30;76.50;;;;;;5052276;28;20029;-82
2023/07/08 08:02:37;;;;;;;4.72;3.88;;;27.30;76.10;;;;;;5043872;28;20029;-80
2023/07/08 08:05:03;;;;;;;5.97;4.05;;;27.40;75.90;;;;;;5051150;28;20030;-80
2023/07/08 08:07:29;;;;;;;7.00;4.22;;;27.50;76.10;;;;;;5034447;28;20057;-80
2023/07/08 08:09:55;;;;;;;5.72;4.25;;;27.50;76.00;;;;;;5051303;28;20031;-80
2023/07/08 08:12:24;;;;;;;5.28;3.92;;;27.50;75.60;;;;;;5051144;28;20037;-78
2023/07/08 08:14:50;;;;;;;35.63;7.43;;;27.50;75.50;;;;;;5050478;28;20033;-78
2023/07/08 08:17:16;;;;;;;7.35;4.43;;;27.60;74.30;;;;;;5050534;28;20059;-79
2023/07/08 08:19:42;;;;;;;5.82;4.07;;;27.60;73.60;;;;;;5048911;28;20057;-79
2023/07/08 08:22:07;;;;;;;5.15;3.67;;;27.60;73.60;;;;;;5016336;28;20111;-79
2023/07/08 08:24:34;;;;;;;5.45;3.22;;;27.60;73.20;;;;;;5050068;28;20075;-79
2023/07/08 08:27:00;;;;;;;4.97;3.75;;;27.70;73.60;;;;;;5051994;28;20496;-79
2023/07/08 08:29:25;;;;;;;9.30;3.78;;;27.80;74.00;;;;;;5052156;28;20112;-79
2023/07/08 08:31:51;;;;;;;5.65;3.90;;;27.80;73.40;;;;;;5049404;28;20399;-79
2023/07/08 08:34:17;;;;;;;4.78;3.42;;;27.90;73.50;;;;;;5044024;28;20391;-79
2023/07/08 08:36:43;;;;;;;4.13;3.72;;;28.00;73.00;;;;;;5032021;28;20037;-79
2023/07/08 08:39:08;;;;;;;6.05;3.58;;;28.10;73.70;;;;;;5052200;28;20109;-79
2023/07/08 08:41:38;;;;;;;5.50;4.00;;;28.20;74.10;;;;;;5034103;28;20029;-79
2023/07/08 08:44:06;;;;;;;4.27;3.20;;;28.30;74.10;;;;;;5047136;28;20067;-79
2023/07/08 08:46:51;;;;;;;7.03;3.97;;;28.40;74.20;;;;;;5047491;28;20263;-79
2023/07/08 08:49:20;;;;;;;6.40;3.60;;;28.50;73.80;;;;;;5051594;28;20376;-79
2023/07/08 08:51:46;;;;;;;11.77;4.25;;;28.60;73.80;;;;;;5041439;28;20025;-79
2023/07/08 08:54:12;;;;;;;12.32;4.43;;;28.60;73.80;;;;;;5050156;28;20025;-79
2023/07/08 08:57:02;;;;;;;9.02;4.35;;;28.70;73.70;;;;;;5037923;28;20030;-79
2023/07/08 08:59:32;;;;;;;6.18;3.67;;;28.80;73.70;;;;;;5038749;28;20033;-79
2023/07/08 09:02:00;;;;;;;4.78;3.67;;;28.80;72.70;;;;;;5052186;28;20045;-79
2023/07/08 09:04:33;;;;;;;5.68;4.20;;;28.80;72.50;;;;;;5054394;28;20457;-79
2023/07/08 09:07:15;;;;;;;9.35;4.75;;;28.90;72.20;;;;;;5051021;28;20132;-79
2023/07/08 09:10:10;;;;;;;4.68;3.90;;;29.00;71.20;;;;;;5051073;28;20485;-79
2023/07/08 09:12:36;;;;;;;6.22;4.50;;;29.10;72.60;;;;;;5025491;28;20069;-79
2023/07/08 09:15:15;;;;;;;5.53;4.25;;;29.20;71.70;;;;;;5052909;28;20111;-79
2023/07/08 09:17:40;;;;;;;6.43;3.70;;;29.20;70.90;;;;;;5055550;28;20029;-79
2023/07/08 09:20:06;;;;;;;5.10;3.90;;;29.30;71.20;;;;;;5053260;28;20032;-79
2023/07/08 09:22:40;;;;;;;6.80;4.55;;;29.40;71.40;;;;;;5055256;28;20020;-79
2023/07/08 09:25:15;;;;;;;7.88;4.57;;;29.50;70.70;;;;;;5055043;28;20109;-79
2023/07/08 09:27:45;;;;;;;5.28;4.40;;;29.60;70.80;;;;;;5054149;28;20067;-79
2023/07/08 09:30:15;;;;;;;5.70;4.28;;;29.70;71.00;;;;;;5026607;28;20044;-79
2023/07/08 09:32:41;;;;;;;5.35;4.40;;;29.80;71.50;;;;;;5048999;28;20111;-79
2023/07/08 09:35:16;;;;;;;7.35;5.00;;;30.00;71.90;;;;;;5051314;28;20705;-79
2023/07/08 09:37:46;;;;;;;8.13;4.47;;;30.10;71.40;;;;;;5053320;28;20400;-79
2023/07/08 09:40:21;;;;;;;7.00;4.72;;;30.20;70.40;;;;;;5053878;28;20032;-79
2023/07/08 09:42:50;;;;;;;5.28;4.25;;;30.20;70.20;;;;;;5054442;28;20083;-79
2023/07/08 09:45:23;;;;;;;6.45;4.75;;;30.30;69.90;;;;;;5043817;28;20394;-79
2023/07/08 09:47:54;;;;;;;10.65;4.80;;;30.40;69.60;;;;;;5053660;28;20136;-79
2023/07/08 09:50:27;;;;;;;7.63;4.43;;;30.50;69.00;;;;;;5054853;28;20366;-80
2023/07/08 09:52:57;;;;;;;7.35;4.25;;;30.60;69.20;;;;;;5054646;28;20033;-80
2023/07/08 09:55:23;;;;;;;5.90;3.85;;;30.60;67.90;;;;;;5046191;28;20020;-80
2023/07/08 09:57:52;;;;;;;6.90;3.90;;;30.80;67.90;;;;;;5052185;28;20029;-79
2023/07/08 10:00:26;;;;;;;7.40;4.15;;;30.80;67.60;;;;;;5050413;28;20025;-79
2023/07/08 10:02:56;;;;;;;10.40;5.40;;;30.90;67.20;;;;;;5051820;28;20040;-81
2023/07/08 10:05:38;;;;;;;5.32;3.38;;;31.00;64.00;;;;;;5047485;28;20032;-82
2023/07/08 10:08:27;;;;;;;6.45;3.53;;;31.00;63.70;;;;;;5051127;28;20123;-81
2023/07/08 10:11:24;;;;;;;6.50;3.97;;;31.10;63.70;;;;;;5035007;28;20028;-81
2023/07/08 10:13:53;;;;;;;6.95;4.22;;;31.10;64.90;;;;;;5043336;28;20021;-81
2023/07/08 10:16:34;;;;;;;5.50;4.28;;;31.20;64.70;;;;;;5044979;28;20752;-81
2023/07/08 10:19:01;;;;;;;6.20;4.38;;;31.30;63.40;;;;;;5044138;28;20017;-81
2023/07/08 10:22:09;;;;;;;7.50;3.45;;;31.30;62.10;;;;;;5053145;28;20032;-83
2023/07/08 10:24:48;;;;;;;5.38;4.10;;;31.30;63.20;;;;;;5060832;28;20036;-83
2023/07/08 10:27:39;;;;;;;4.60;3.60;;;31.30;61.70;;;;;;5036208;28;20037;-83
2023/07/08 10:30:25;;;;;;;6.18;4.43;;;31.50;62.80;;;;;;5037070;28;20041;-83
2023/07/08 10:33:03;;;;;;;7.13;4.57;;;31.50;60.40;;;;;;5052403;28;20477;-81
2023/07/08 10:35:33;;;;;;;6.30;4.47;;;31.50;60.90;;;;;;5050712;28;20513;-82
2023/07/08 10:38:21;;;;;;;7.90;4.18;;;31.60;59.80;;;;;;5050243;28;20037;-83
2023/07/08 10:40:54;;;;;;;4.40;3.55;;;31.60;60.90;;;;;;5051149;28;20126;-83
2023/07/08 10:43:47;;;;;;;6.00;4.60;;;31.70;60.90;;;;;;5049937;28;20166;-83
2023/07/08 10:46:41;;;;;;;5.13;3.47;;;31.80;58.80;;;;;;5044403;28;20029;-83
2023/07/08 10:49:21;;;;;;;8.00;4.80;;;31.80;59.40;;;;;;5013607;28;20045;-82
2023/07/08 10:51:55;;;;;;;6.32;4.43;;;32.00;59.50;;;;;;5049721;28;20111;-82
2023/07/08 10:54:48;;;;;;;4.85;3.63;;;32.10;59.50;;;;;;5049849;28;20021;-83
2023/07/08 10:57:35;;;;;;;6.55;4.63;;;32.20;59.30;;;;;;5059401;28;20111;-82
2023/07/08 11:00:39;;;;;;;4.35;3.50;;;32.40;59.10;;;;;;5053864;28;20056;-82
2023/07/08 11:03:20;;;;;;;6.03;3.35;;;32.50;59.70;;;;;;5055012;28;20397;-82
2023/07/08 11:05:52;;;;;;;8.25;4.45;;;32.50;60.30;;;;;;5054227;28;20033;-82
2023/07/08 11:08:25;;;;;;;3.95;3.55;;;32.70;60.10;;;;;;5053154;28;20040;-83
2023/07/08 11:10:59;;;;;;;7.32;3.20;;;32.70;61.10;;;;;;5057459;28;20043;-83
2023/07/08 11:13:29;;;;;;;4.90;3.25;;;32.90;60.50;;;;;;5053657;28;20037;-83
2023/07/08 11:16:18;;;;;;;4.20;3.80;;;33.10;60.40;;;;;;5044394;28;20017;-82
2023/07/08 11:18:49;;;;;;;4.72;3.45;;;33.30;60.20;;;;;;5069333;28;20115;-82
2023/07/08 11:21:27;;;;;;;4.47;3.80;;;33.40;59.40;;;;;;5051356;28;20032;-84
2023/07/08 11:24:18;;;;;;;5.05;3.70;;;33.60;59.40;;;;;;5055785;28;20094;-83
2023/07/08 11:26:58;;;;;;;6.72;3.35;;;33.80;59.20;;;;;;5033568;28;20082;-84
2023/07/08 11:29:37;;;;;;;6.95;3.75;;;34.10;58.20;;;;;;5030450;28;20385;-83
2023/07/08 11:32:05;;;;;;;4.93;3.90;;;34.30;58.70;;;;;;5042219;28;20381;-83
2023/07/08 11:34:33;;;;;;;5.97;4.35;;;34.60;58.30;;;;;;5068590;28;20504;-83
2023/07/08 11:37:00;;;;;;;4.00;3.25;;;34.90;58.20;;;;;;5052252;28;20084;-82
2023/07/08 11:39:44;;;;;;;4.72;3.83;;;35.20;58.00;;;;;;5061430;28;20036;-82
2023/07/08 11:42:15;;;;;;;5.45;3.63;;;35.50;56.20;;;;;;5062466;28;20068;-82
2023/07/08 11:44:49;;;;;;;4.78;3.97;;;35.90;56.20;;;;;;5051029;28;20409;-83
2023/07/08 11:47:40;;;;;;;5.47;4.03;;;36.30;55.50;;;;;;5054110;28;20036;-83
2023/07/08 11:50:16;;;;;;;6.70;3.95;;;36.60;54.40;;;;;;5058360;28;20056;-83
2023/07/08 11:53:01;;;;;;;6.10;3.88;;;36.90;53.40;;;;;;5033001;28;20036;-83
2023/07/08 11:55:47;;;;;;;5.85;4.15;;;37.10;52.70;;;;;;5053590;28;20025;-83
2023/07/08 11:58:24;;;;;;;5.63;3.85;;;37.40;52.30;;;;;;5050805;28;20043;-83
2023/07/08 12:01:04;;;;;;;4.13;3.33;;;37.60;52.30;;;;;;5051261;28;20083;-83
2023/07/08 12:03:37;;;;;;;5.97;3.80;;;37.70;51.30;;;;;;5055355;28;20108;-83
2023/07/08 12:06:25;;;;;;;5.38;4.10;;;37.80;51.60;;;;;;5069936;28;20078;-83
2023/07/08 12:08:59;;;;;;;4.63;4.03;;;38.00;50.30;;;;;;5068095;28;20400;-83
2023/07/08 12:11:32;;;;;;;4.70;4.18;;;38.10;50.80;;;;;;5052472;28;20049;-83
2023/07/08 12:14:00;;;;;;;4.43;3.80;;;38.30;50.50;;;;;;5045792;28;20103;-83
2023/07/08 12:16:28;;;;;;;6.22;4.00;;;38.40;49.90;;;;;;5063283;28;20384;-83
2023/07/08 12:18:56;;;;;;;5.65;3.35;;;38.50;49.20;;;;;;5073411;28;20036;-83
2023/07/08 12:21:23;;;;;;;4.35;3.65;;;38.60;48.50;;;;;;5054429;28;20049;-83
2023/07/08 12:23:49;;;;;;;5.53;3.63;;;38.70;48.70;;;;;;5052724;28;20047;-83
2023/07/08 12:26:16;;;;;;;7.97;3.88;;;38.80;47.70;;;;;;5059983;28;20103;-83
2023/07/08 12:28:43;;;;;;;4.40;3.35;;;38.90;47.80;;;;;;5070244;28;20048;-83
2023/07/08 12:31:16;;;;;;;3.83;3.10;;;39.10;47.30;;;;;;5060957;28;20025;-82
2023/07/08 12:33:43;;;;;;;4.32;3.33;;;39.20;45.80;;;;;;5052844;28;20417;-82
2023/07/08 12:36:13;;;;;;;5.60;3.53;;;39.30;46.40;;;;;;5050916;28;20025;-82
2023/07/08 12:38:44;;;;;;;4.35;3.35;;;39.40;46.70;;;;;;5056039;28;20025;-82
2023/07/08 12:41:32;;;;;;;6.60;3.40;;;39.40;46.20;;;;;;5055583;28;20029;-82
2023/07/08 12:43:59;;;;;;;4.95;3.17;;;39.50;44.80;;;;;;5036764;28;20041;-82
2023/07/08 12:46:26;;;;;;;4.07;3.40;;;39.40;45.00;;;;;;5058319;28;20147;-81
2023/07/08 12:48:52;;;;;;;3.47;3.08;;;39.40;44.40;;;;;;5055203;28;20025;-82
2023/07/08 12:51:24;;;;;;;4.28;3.08;;;39.40;45.20;;;;;;5035620;28;20098;-82
2023/07/08 12:53:51;;;;;;;4.80;3.60;;;39.50;44.90;;;;;;5054365;28;20470;-82
2023/07/08 12:56:19;;;;;;;4.55;3.35;;;39.50;44.60;;;;;;5053715;28;20013;-82
2023/07/08 12:58:49;;;;;;;5.05;3.70;;;39.50;44.50;;;;;;5054164;28;20033;-82
2023/07/08 13:01:20;;;;;;;8.50;3.63;;;39.60;44.70;;;;;;5053524;28;20032;-82